createdAt,value
2022-12-01T00:02:23.368Z,4.25
2022-12-01T00:07:24.953Z,4.50
2022-12-01T00:12:26.468Z,5.38
2022-12-01T00:17:29.243Z,5.28
2022-12-01T00:22:30.807Z,4.50
2022-12-01T00:27:32.223Z,3.97
2022-12-01T00:32:33.752Z,4.22
2022-12-01T00:37:35.564Z,4.22
2022-12-01T00:42:37.162Z,4.65
2022-12-01T00:47:38.601Z,4.93
2022-12-01T00:52:40.129Z,4.55
2022-12-01T00:57:41.588Z,4.28
2022-12-01T01:02:43.269Z,5.70
2022-12-01T01:07:44.806Z,4.82
2022-12-01T01:12:46.265Z,4.47
2022-12-01T01:17:47.689Z,5.55
2022-12-01T01:22:49.154Z,4.40
2022-12-01T01:27:51.091Z,5.25
2022-12-01T01:32:52.560Z,4.15
2022-12-01T01:37:54.012Z,3.45
2022-12-01T01:42:55.624Z,4.15
2022-12-01T01:47:59.608Z,3.28
2022-12-01T01:53:06.099Z,3.08
2022-12-01T01:58:10.771Z,4.03
2022-12-01T02:03:15.712Z,3.72
2022-12-01T02:08:17.256Z,4.13
2022-12-01T02:13:37.030Z,3.78
2022-12-01T02:19:08.661Z,3.60
2022-12-01T02:24:16.093Z,3.53
2022-12-01T02:29:38.216Z,3.65
2022-12-01T02:34:59.588Z,2.72
2022-12-01T02:40:31.713Z,3.92
2022-12-01T02:45:39.423Z,3.65
2022-12-01T02:50:42.828Z,3.90
2022-12-01T02:55:51.953Z,5.55
2022-12-01T03:00:56.440Z,4.30
2022-12-01T03:06:23.224Z,3.45
2022-12-01T03:11:35.886Z,3.88
2022-12-01T03:16:52.038Z,4.93
2022-12-01T03:22:05.171Z,2.83
2022-12-01T03:27:09.802Z,3.58
2022-12-01T03:32:20.140Z,3.85
2022-12-01T03:37:53.944Z,2.72
2022-12-01T03:43:07.278Z,4.18
2022-12-01T03:48:09.176Z,4.60
2022-12-01T03:53:19.250Z,3.08
2022-12-01T03:58:27.222Z,3.90
2022-12-01T04:03:28.731Z,2.72
2022-12-01T04:08:30.706Z,2.33
2022-12-01T04:13:33.000Z,3.28
2022-12-01T04:18:34.455Z,2.90
2022-12-01T04:23:54.492Z,3.90
2022-12-01T04:28:56.179Z,2.60
2022-12-01T04:33:59.112Z,3.05
2022-12-01T04:39:01.319Z,3.55
2022-12-01T04:44:02.826Z,2.05
2022-12-01T04:49:05.263Z,2.92
2022-12-01T04:54:06.757Z,3.83
2022-12-01T04:59:08.877Z,3.63
2022-12-01T05:04:13.840Z,2.25
2022-12-01T05:09:17.817Z,3.45
2022-12-01T05:14:19.451Z,4.25
2022-12-01T05:19:47.375Z,3.95
2022-12-01T05:24:49.069Z,3.05
2022-12-01T05:29:50.825Z,2.20
2022-12-01T05:34:52.402Z,3.35
2022-12-01T05:39:53.836Z,2.05
2022-12-01T05:44:55.260Z,3.50
2022-12-01T05:49:59.584Z,1.48
2022-12-01T05:55:05.496Z,3.08
2022-12-01T06:00:07.965Z,3.70
2022-12-01T06:05:15.206Z,3.90
2022-12-01T06:10:16.843Z,4.43
2022-12-01T06:15:18.319Z,5.40
2022-12-01T06:20:19.808Z,3.00
2022-12-01T06:25:22.549Z,5.85
2022-12-01T06:30:24.051Z,4.45
2022-12-01T06:35:25.496Z,4.40
2022-12-01T06:40:27.313Z,3.63
2022-12-01T06:45:30.227Z,4.88
2022-12-01T06:50:32.032Z,5.07
2022-12-01T06:55:33.955Z,4.30
2022-12-01T07:00:35.440Z,3.65
2022-12-01T07:05:36.868Z,2.75
2022-12-01T07:10:38.289Z,3.67
2022-12-01T07:15:39.726Z,5.57
2022-12-01T07:20:41.158Z,3.20
2022-12-01T07:25:42.598Z,4.60
2022-12-01T07:30:44.091Z,4.50
2022-12-01T07:35:45.547Z,4.07
2022-12-01T07:40:47.037Z,6.38
2022-12-01T07:45:49.317Z,4.15
2022-12-01T07:50:50.994Z,4.97
2022-12-01T07:55:52.431Z,4.78
2022-12-01T08:00:54.324Z,5.68
2022-12-01T08:06:00.193Z,3.80
2022-12-01T08:11:03.979Z,6.00
2022-12-01T08:16:07.086Z,4.32
2022-12-01T08:21:12.261Z,5.10
2022-12-01T08:26:18.703Z,6.28
2022-12-01T08:31:26.110Z,7.13
2022-12-01T08:36:27.691Z,5.75
2022-12-01T08:41:29.420Z,3.63
2022-12-01T08:46:35.769Z,4.82
2022-12-01T08:51:37.516Z,6.53
2022-12-01T08:56:42.186Z,6.68
2022-12-01T09:01:52.701Z,5.78
2022-12-01T09:06:56.135Z,5.15
2022-12-01T09:11:57.619Z,6.10
2022-12-01T09:16:59.039Z,4.15
2022-12-01T09:22:01.017Z,5.13
2022-12-01T09:27:03.562Z,6.53
2022-12-01T09:32:05.110Z,6.18
2022-12-01T09:37:07.582Z,5.88
2022-12-01T09:42:15.413Z,5.22
2022-12-01T09:47:34.389Z,6.30
2022-12-01T09:52:44.898Z,5.88
2022-12-01T09:57:48.921Z,5.80
2022-12-01T10:03:09.687Z,5.57
2022-12-01T10:08:16.621Z,7.32
2022-12-01T10:13:19.670Z,3.90
2022-12-01T10:18:46.565Z,6.65
2022-12-01T10:23:59.998Z,7.00
2022-12-01T10:29:22.863Z,4.57
2022-12-01T10:34:28.877Z,6.95
2022-12-01T10:39:37.770Z,5.10
2022-12-01T10:44:40.241Z,6.43
2022-12-01T10:49:41.777Z,6.60
2022-12-01T10:54:43.341Z,5.45
2022-12-01T10:59:56.772Z,5.65
2022-12-01T11:05:05.105Z,6.88
2022-12-01T11:10:19.981Z,7.28
2022-12-01T11:15:27.362Z,5.45
2022-12-01T11:20:40.687Z,5.93
2022-12-01T11:25:42.360Z,5.40
2022-12-01T11:30:43.831Z,9.13
2022-12-01T11:35:48.582Z,6.85
2022-12-01T11:40:53.821Z,6.30
2022-12-01T11:45:58.147Z,8.00
2022-12-01T11:51:24.414Z,7.53
2022-12-01T11:56:30.365Z,8.55
2022-12-01T12:01:43.481Z,6.80
2022-12-01T12:06:50.813Z,7.90
2022-12-01T12:12:29.627Z,7.93
2022-12-01T12:17:49.339Z,6.63
2022-12-01T12:23:09.723Z,5.27
2022-12-01T12:28:11.197Z,7.10
2022-12-01T12:33:36.812Z,7.10
2022-12-01T12:38:45.220Z,7.32
2022-12-01T12:43:58.704Z,9.32
2022-12-01T12:49:37.732Z,7.85
2022-12-01T12:54:54.717Z,7.88
2022-12-01T13:00:06.569Z,6.75
2022-12-01T13:05:24.844Z,8.30
2022-12-01T13:10:52.304Z,4.40
2022-12-01T13:15:56.550Z,7.25
2022-12-01T13:20:58.631Z,6.85
2022-12-01T13:26:05.264Z,6.63
2022-12-01T13:31:16.956Z,7.10
2022-12-01T13:36:48.469Z,5.10
2022-12-01T13:41:43.048Z,5.88
2022-12-01T13:46:44.830Z,6.57
2022-12-01T13:52:17.449Z,5.00
2022-12-01T13:57:27.635Z,4.50
2022-12-01T14:02:36.370Z,4.35
2022-12-01T14:07:38.699Z,7.07
2022-12-01T14:12:45.521Z,4.80
2022-12-01T14:17:47.474Z,3.63
2022-12-01T14:23:04.797Z,6.40
2022-12-01T14:28:17.207Z,5.28
2022-12-01T14:33:48.641Z,6.68
2022-12-01T14:38:53.784Z,4.13
2022-12-01T14:44:05.565Z,6.28
2022-12-01T14:49:14.024Z,5.63
2022-12-01T14:54:22.369Z,5.05
2022-12-01T14:59:26.608Z,4.97
2022-12-01T15:04:28.552Z,4.45
2022-12-01T15:09:34.457Z,4.90
2022-12-01T15:14:45.830Z,4.80
2022-12-01T15:19:47.399Z,5.18
2022-12-01T15:24:49.325Z,6.40
2022-12-01T15:29:52.048Z,6.20
2022-12-01T15:34:55.651Z,7.03
2022-12-01T15:40:43.471Z,6.65
2022-12-01T15:45:27.296Z,4.60
2022-12-01T15:50:30.964Z,4.25
2022-12-01T15:55:35.956Z,5.43
2022-12-01T16:00:37.428Z,5.07
2022-12-01T16:05:44.287Z,5.43
2022-12-01T16:10:45.881Z,4.93
2022-12-01T16:15:47.415Z,5.60
2022-12-01T16:20:50.025Z,5.45
2022-12-01T16:25:51.728Z,5.55
2022-12-01T16:30:53.982Z,8.80
2022-12-01T16:35:59.458Z,6.25
2022-12-01T16:41:02.309Z,5.75
2022-12-01T16:46:09.998Z,7.05
2022-12-01T16:51:14.633Z,4.45
2022-12-01T16:56:16.147Z,3.33
2022-12-01T17:01:17.677Z,5.05
2022-12-01T17:06:20.580Z,3.83
2022-12-01T17:11:22.041Z,5.43
2022-12-01T17:16:23.610Z,3.40
2022-12-01T17:21:25.106Z,2.15
2022-12-01T17:26:26.652Z,2.70
2022-12-01T17:31:28.285Z,3.38
2022-12-01T17:36:29.862Z,4.53
2022-12-01T17:41:35.695Z,4.47
2022-12-01T17:46:38.391Z,3.35
2022-12-01T17:51:40.808Z,4.03
2022-12-01T17:56:42.679Z,3.47
2022-12-01T18:01:44.292Z,3.72
2022-12-01T18:06:50.664Z,2.83
2022-12-01T18:11:56.356Z,4.17
2022-12-01T18:16:58.136Z,4.68
2022-12-01T18:21:59.651Z,2.78
2022-12-01T18:27:01.304Z,3.55
2022-12-01T18:32:02.825Z,3.55
2022-12-01T18:37:05.873Z,4.00
2022-12-01T18:42:07.372Z,3.75
2022-12-01T18:47:09.143Z,3.90
2022-12-01T18:52:10.642Z,4.00
2022-12-01T18:57:12.102Z,4.25
2022-12-01T19:02:13.626Z,4.03
2022-12-01T19:07:15.605Z,6.05
2022-12-01T19:12:17.043Z,4.18
2022-12-01T19:17:18.921Z,2.25
2022-12-01T19:22:20.425Z,3.13
2022-12-01T19:27:21.930Z,2.72
2022-12-01T19:32:24.107Z,1.75
2022-12-01T19:37:25.784Z,4.32
2022-12-01T19:42:27.275Z,2.58
2022-12-01T19:47:32.433Z,3.92
2022-12-01T19:52:37.037Z,2.00
2022-12-01T19:57:38.535Z,2.58
2022-12-01T20:02:40.034Z,2.78
2022-12-01T20:07:41.585Z,1.23
2022-12-01T20:12:43.180Z,2.28
2022-12-01T20:17:44.937Z,2.50
2022-12-01T20:22:46.397Z,1.40
2022-12-01T20:27:47.944Z,5.90
2022-12-01T20:32:49.418Z,7.03
2022-12-01T20:37:50.984Z,4.53
2022-12-01T20:42:52.474Z,4.82
2022-12-01T20:47:54.011Z,1.83
2022-12-01T20:52:55.549Z,1.92
2022-12-01T20:57:57.142Z,3.58
2022-12-01T21:02:58.712Z,2.65
2022-12-01T21:08:02.087Z,2.58
2022-12-01T21:13:42.329Z,1.77
2022-12-01T21:18:59.833Z,2.88
2022-12-01T21:24:01.299Z,2.47
2022-12-01T21:29:24.930Z,2.03
2022-12-01T21:34:28.599Z,2.03
2022-12-01T21:39:30.222Z,2.78
2022-12-01T21:44:36.708Z,1.73
2022-12-01T21:49:39.996Z,2.65
2022-12-01T21:54:41.453Z,1.35
2022-12-01T21:59:42.900Z,2.17
2022-12-01T22:04:45.193Z,1.25
2022-12-01T22:10:22.708Z,1.90
2022-12-01T22:15:41.548Z,1.27
2022-12-01T22:20:43.171Z,0.63
2022-12-01T22:25:46.433Z,1.55
2022-12-01T22:30:48.468Z,1.80
2022-12-01T22:35:52.581Z,2.15
2022-12-01T22:41:07.993Z,2.05
2022-12-01T22:46:21.476Z,1.90
2022-12-01T22:51:31.393Z,1.13
2022-12-01T22:56:39.535Z,2.17
2022-12-01T23:01:52.100Z,2.05
2022-12-01T23:07:22.873Z,3.05
2022-12-01T23:12:30.373Z,1.30
2022-12-01T23:17:34.177Z,2.15
2022-12-01T23:22:36.732Z,2.67
2022-12-01T23:27:38.645Z,2.20
2022-12-01T23:32:40.297Z,2.63
2022-12-01T23:37:43.710Z,3.30
2022-12-01T23:42:45.261Z,3.08
2022-12-01T23:47:46.916Z,3.35
2022-12-01T23:52:48.607Z,2.03
2022-12-01T23:57:51.300Z,2.75
